Time;durP1;ratioP1;P1;durP2;ratioP2;P2;SDS_P1;SDS_P2;PMS_P1;PMS_P2;Temp;Humidity;BMP_temperature;BMP_pressure;BME280_temperature;BME280_humidity;BME280_pressure;Samples;Min_cycle;Max_cycle;Signal;HPM_P1;HPM_P2
2021/09/15 00:00:18;;;;;;;11.23;8.25;;;23.80;52.70;;;;;;4168524;28;20046;-54
2021/09/15 00:02:20;;;;;;;10.77;7.60;;;23.80;52.60;;;;;;4168506;28;20033;-57
2021/09/15 00:04:22;;;;;;;17.65;8.43;;;23.80;52.50;;;;;;4168449;28;20048;-56
2021/09/15 00:06:24;;;;;;;15.23;7.70;;;23.80;52.50;;;;;;4168430;28;20074;-55
2021/09/15 00:08:27;;;;;;;11.02;8.77;;;23.80;52.50;;;;;;4168437;28;20065;-56
2021/09/15 00:10:29;;;;;;;8.73;7.60;;;23.80;52.80;;;;;;4168390;28;20052;-56
2021/09/15 00:12:31;;;;;;;11.85;7.25;;;23.80;52.60;;;;;;4168371;28;20053;-56
2021/09/15 00:14:34;;;;;;;11.15;8.00;;;23.80;52.60;;;;;;4168311;28;20049;-55
2021/09/15 00:16:36;;;;;;;10.98;8.32;;;23.70;52.60;;;;;;4168258;28;20050;-56
2021/09/15 00:18:38;;;;;;;10.80;7.75;;;23.80;52.80;;;;;;4168289;28;20048;-55
2021/09/15 00:20:40;;;;;;;9.20;7.57;;;23.80;52.60;;;;;;4168272;28;20128;-55
2021/09/15 00:22:43;;;;;;;9.38;7.28;;;23.80;52.60;;;;;;4168178;28;20050;-56
2021/09/15 00:24:45;;;;;;;9.02;7.57;;;23.80;52.50;;;;;;4167896;28;20077;-57
2021/09/15 00:26:47;;;;;;;9.77;7.93;;;23.80;52.50;;;;;;4168063;28;20461;-56
2021/09/15 00:28:49;;;;;;;10.88;8.30;;;23.80;52.60;;;;;;4168122;28;20048;-57
2021/09/15 00:30:51;;;;;;;9.73;7.03;;;23.80;52.60;;;;;;4151144;28;20070;-55
2021/09/15 00:32:54;;;;;;;8.90;7.38;;;23.80;52.60;;;;;;4167992;28;20046;-56
2021/09/15 00:34:56;;;;;;;12.77;7.63;;;23.70;52.60;;;;;;4168048;28;20411;-54
2021/09/15 00:36:58;;;;;;;11.23;7.88;;;23.80;52.60;;;;;;4167969;28;20073;-56
2021/09/15 00:39:00;;;;;;;10.48;7.07;;;23.70;52.70;;;;;;4167953;28;20052;-56
2021/09/15 00:41:02;;;;;;;7.72;6.82;;;23.70;52.50;;;;;;4167833;28;20136;-57
2021/09/15 00:43:04;;;;;;;7.32;6.55;;;23.70;52.60;;;;;;4167855;28;20049;-54
2021/09/15 00:45:13;;;;;;;8.27;7.30;;;23.70;52.70;;;;;;4167849;28;20099;-55
2021/09/15 00:47:15;;;;;;;7.78;6.40;;;23.70;52.80;;;;;;4167813;28;20053;-55
2021/09/15 00:49:17;;;;;;;8.45;6.45;;;23.70;52.70;;;;;;4167828;28;20046;-55
2021/09/15 00:51:20;;;;;;;7.78;6.88;;;23.70;52.80;;;;;;4167743;28;20057;-52
2021/09/15 00:53:41;;;;;;;8.25;7.25;;;23.70;52.70;;;;;;4167639;28;20072;-54
2021/09/15 00:56:03;;;;;;;6.82;6.07;;;23.70;52.80;;;;;;4153240;28;20065;-53
2021/09/15 00:58:05;;;;;;;7.97;6.47;;;23.70;52.80;;;;;;4150637;28;20102;-55
2021/09/15 01:00:09;;;;;;;8.00;6.53;;;23.70;52.70;;;;;;4150584;28;20042;-52
2021/09/15 01:02:13;;;;;;;7.95;6.70;;;23.70;52.80;;;;;;4150616;28;20051;-50
2021/09/15 01:04:15;;;;;;;8.75;6.20;;;23.70;52.80;;;;;;4167525;28;20060;-50
2021/09/15 01:06:17;;;;;;;8.18;6.70;;;23.70;52.80;;;;;;4167430;28;20049;-54
2021/09/15 01:08:20;;;;;;;8.15;6.80;;;23.70;52.80;;;;;;4167395;28;20073;-53
2021/09/15 01:10:26;;;;;;;7.20;5.75;;;23.80;52.60;;;;;;4167411;28;20045;-54
2021/09/15 01:12:29;;;;;;;11.90;6.28;;;23.70;52.60;;;;;;4167429;28;20034;-54
2021/09/15 01:14:32;;;;;;;8.70;6.23;;;23.70;52.70;;;;;;4167436;28;20092;-54
2021/09/15 01:16:55;;;;;;;9.27;5.57;;;23.70;52.70;;;;;;4167359;28;20289;-54
2021/09/15 01:18:57;;;;;;;7.53;6.07;;;23.70;52.80;;;;;;4167400;28;20044;-54
2021/09/15 01:21:00;;;;;;;8.32;6.28;;;23.70;52.90;;;;;;4167337;28;20045;-55
2021/09/15 01:23:02;;;;;;;7.97;6.13;;;23.70;52.80;;;;;;4167306;28;20053;-54
2021/09/15 01:25:04;;;;;;;7.60;5.88;;;23.70;52.70;;;;;;4167090;28;20060;-55
2021/09/15 01:27:06;;;;;;;9.15;5.88;;;23.70;52.80;;;;;;4167168;28;20078;-55
2021/09/15 01:29:16;;;;;;;7.93;6.70;;;23.70;52.70;;;;;;4167214;28;20065;-50
2021/09/15 01:31:19;;;;;;;6.72;5.63;;;23.70;52.70;;;;;;4167204;28;20046;-51
2021/09/15 01:33:21;;;;;;;10.25;6.15;;;23.70;52.70;;;;;;4167224;28;20064;-54
2021/09/15 01:35:23;;;;;;;8.10;5.47;;;23.70;52.80;;;;;;4167100;28;20042;-50
2021/09/15 01:37:26;;;;;;;6.20;5.38;;;23.70;52.80;;;;;;4167092;28;20046;-53
2021/09/15 01:39:28;;;;;;;9.52;6.20;;;23.70;52.80;;;;;;4167086;28;20060;-53
2021/09/15 01:41:34;;;;;;;8.73;6.55;;;23.70;52.80;;;;;;4166978;28;20106;-53
2021/09/15 01:43:37;;;;;;;7.43;5.90;;;23.70;52.70;;;;;;4167046;28;20046;-53
2021/09/15 01:45:39;;;;;;;7.97;5.53;;;23.70;52.70;;;;;;4167009;28;20050;-53
2021/09/15 01:47:41;;;;;;;8.52;5.93;;;23.70;52.70;;;;;;4166899;28;20046;-49
2021/09/15 01:49:44;;;;;;;6.55;5.35;;;23.70;52.80;;;;;;4166867;28;20042;-50
2021/09/15 01:51:47;;;;;;;7.35;6.03;;;23.70;52.90;;;;;;4166907;28;20045;-55
2021/09/15 01:53:49;;;;;;;7.13;6.00;;;23.70;52.90;;;;;;4166872;28;20049;-56
2021/09/15 01:55:51;;;;;;;9.07;6.13;;;23.70;52.90;;;;;;4166798;28;20046;-55
2021/09/15 01:57:54;;;;;;;9.50;5.30;;;23.70;52.80;;;;;;4166803;28;20037;-55
2021/09/15 01:59:57;;;;;;;9.75;5.63;;;23.70;52.90;;;;;;4166788;28;20073;-55
2021/09/15 02:01:59;;;;;;;6.60;5.80;;;23.70;52.80;;;;;;4166796;28;20562;-56
2021/09/15 02:04:01;;;;;;;7.90;5.82;;;23.70;52.90;;;;;;4166687;28;20077;-56
2021/09/15 02:06:03;;;;;;;7.80;5.90;;;23.70;52.90;;;;;;4166193;28;20042;-56
2021/09/15 02:08:06;;;;;;;6.78;5.70;;;23.60;52.80;;;;;;4166610;28;20049;-52
2021/09/15 02:10:11;;;;;;;7.70;6.25;;;23.70;52.90;;;;;;4166689;28;20106;-54
2021/09/15 02:12:13;;;;;;;6.75;5.95;;;23.70;52.90;;;;;;4166699;28;20109;-56
2021/09/15 02:14:16;;;;;;;7.28;5.22;;;23.70;52.90;;;;;;4166622;28;20514;-55
2021/09/15 02:16:18;;;;;;;7.15;5.30;;;23.60;52.80;;;;;;4166658;28;20519;-56
2021/09/15 02:18:20;;;;;;;7.55;5.70;;;23.70;52.90;;;;;;4166633;28;20042;-56
2021/09/15 02:20:22;;;;;;;7.80;5.57;;;23.70;52.90;;;;;;4166553;28;20057;-56
2021/09/15 02:22:25;;;;;;;8.05;6.35;;;23.70;52.90;;;;;;4166568;28;20409;-56
2021/09/15 02:24:27;;;;;;;7.22;5.75;;;23.60;52.90;;;;;;4166346;28;20065;-55
2021/09/15 02:26:31;;;;;;;7.20;5.80;;;23.60;52.90;;;;;;4166574;28;20455;-57
2021/09/15 02:28:33;;;;;;;6.15;5.55;;;23.60;52.90;;;;;;4166414;28;20046;-56
2021/09/15 02:30:35;;;;;;;6.75;5.82;;;23.60;52.90;;;;;;4166530;28;20045;-56
2021/09/15 02:32:37;;;;;;;6.68;5.97;;;23.70;53.00;;;;;;4149473;28;20038;-55
2021/09/15 02:34:39;;;;;;;8.35;4.72;;;23.60;53.00;;;;;;4166451;28;20046;-57
2021/09/15 02:36:42;;;;;;;6.15;5.45;;;23.60;52.90;;;;;;4166504;28;20076;-56
2021/09/15 02:38:44;;;;;;;7.65;5.38;;;23.60;52.90;;;;;;4166420;28;20057;-55
2021/09/15 02:40:46;;;;;;;6.35;5.43;;;23.60;53.00;;;;;;4166371;28;20058;-56
2021/09/15 02:42:48;;;;;;;9.38;5.90;;;23.60;53.00;;;;;;4166378;28;20049;-54
2021/09/15 02:44:50;;;;;;;9.00;5.70;;;23.60;53.00;;;;;;4166374;28;20050;-57
2021/09/15 02:46:55;;;;;;;8.63;5.50;;;23.60;53.00;;;;;;4149653;28;20042;-55
2021/09/15 02:48:58;;;;;;;8.25;6.00;;;23.60;53.00;;;;;;4166348;28;20042;-54
2021/09/15 02:51:05;;;;;;;7.20;6.15;;;23.60;52.90;;;;;;4166348;28;20073;-56
2021/09/15 02:53:09;;;;;;;6.18;5.43;;;23.60;53.00;;;;;;4166297;28;20046;-56
2021/09/15 02:55:11;;;;;;;7.95;6.10;;;23.60;53.00;;;;;;4166311;28;20046;-55
2021/09/15 02:57:13;;;;;;;6.43;5.82;;;23.60;53.00;;;;;;4166275;28;20050;-54
2021/09/15 02:59:17;;;;;;;8.75;5.75;;;23.60;53.00;;;;;;4166351;28;20430;-51
2021/09/15 03:01:19;;;;;;;8.45;5.55;;;23.60;52.90;;;;;;4166201;28;20050;-55
2021/09/15 03:03:22;;;;;;;11.02;6.32;;;23.60;53.00;;;;;;4166298;28;20054;-53
2021/09/15 03:05:25;;;;;;;7.20;5.93;;;23.60;53.00;;;;;;4165742;28;20046;-57
2021/09/15 03:07:28;;;;;;;6.07;5.47;;;23.60;53.00;;;;;;4165001;28;20069;-57
2021/09/15 03:09:48;;;;;;;9.88;5.22;;;23.60;53.00;;;;;;4165376;28;20049;-57
2021/09/15 03:12:12;;;;;;;6.32;5.10;;;23.60;53.00;;;;;;4164984;28;20072;-57
2021/09/15 03:14:15;;;;;;;8.00;5.68;;;23.60;53.00;;;;;;4165281;28;20049;-47
2021/09/15 03:16:21;;;;;;;6.72;5.78;;;23.60;53.10;;;;;;4166142;28;20038;-53
2021/09/15 03:18:23;;;;;;;7.03;6.07;;;23.60;53.10;;;;;;4168373;28;20046;-55
2021/09/15 03:20:25;;;;;;;7.55;5.82;;;23.60;53.20;;;;;;4169219;28;20038;-55
2021/09/15 03:22:27;;;;;;;9.90;5.47;;;23.60;53.10;;;;;;4169130;28;20054;-55
2021/09/15 03:24:30;;;;;;;6.05;5.45;;;23.60;53.20;;;;;;4168945;28;20057;-53
2021/09/15 03:26:33;;;;;;;8.23;5.43;;;23.60;53.30;;;;;;4169039;28;20049;-52
2021/09/15 03:28:35;;;;;;;8.98;6.07;;;23.60;53.10;;;;;;4168988;28;20050;-52
2021/09/15 03:30:38;;;;;;;9.95;6.47;;;23.60;53.20;;;;;;4152126;28;20541;-54
2021/09/15 03:32:40;;;;;;;7.50;5.15;;;23.60;53.10;;;;;;4169090;28;20052;-54
2021/09/15 03:34:42;;;;;;;7.30;5.78;;;23.60;53.10;;;;;;4168903;28;20045;-55
2021/09/15 03:36:44;;;;;;;8.20;6.05;;;23.60;53.10;;;;;;4168954;28;20045;-55
2021/09/15 03:38:47;;;;;;;9.45;6.03;;;23.60;53.10;;;;;;4169011;28;20098;-50
2021/09/15 03:40:49;;;;;;;7.43;5.50;;;23.60;53.10;;;;;;4168951;28;20049;-52
2021/09/15 03:42:51;;;;;;;8.98;5.93;;;23.60;53.20;;;;;;4168851;28;20113;-52
2021/09/15 03:44:53;;;;;;;6.55;5.88;;;23.60;53.10;;;;;;4151806;28;20042;-53
2021/09/15 03:46:56;;;;;;;6.57;5.75;;;23.60;53.10;;;;;;4151740;28;20054;-50
2021/09/15 03:48:59;;;;;;;11.48;6.38;;;23.60;53.10;;;;;;4151673;28;20049;-52
2021/09/15 03:51:02;;;;;;;9.93;5.75;;;23.60;53.10;;;;;;4168647;28;20038;-49
2021/09/15 03:53:04;;;;;;;9.10;7.03;;;23.60;53.00;;;;;;4168727;28;20050;-47
2021/09/15 03:55:07;;;;;;;8.10;5.55;;;23.60;53.10;;;;;;4168685;28;20034;-52
2021/09/15 03:57:09;;;;;;;7.05;6.35;;;23.60;53.10;;;;;;4168524;28;20046;-55
2021/09/15 03:59:11;;;;;;;8.43;6.35;;;23.50;53.20;;;;;;4168530;28;20049;-55
2021/09/15 04:01:14;;;;;;;8.38;6.05;;;23.60;53.20;;;;;;4168605;28;20045;-54
2021/09/15 04:03:16;;;;;;;12.85;6.90;;;23.60;53.20;;;;;;4168409;28;20049;-57
2021/09/15 04:05:37;;;;;;;23.13;6.18;;;23.50;55.30;;;;;;4168450;28;20056;-59
2021/09/15 04:07:58;;;;;;;17.42;6.47;;;23.60;56.40;;;;;;4168398;28;20046;-57
2021/09/15 04:10:19;;;;;;;19.65;7.55;;;23.50;56.20;;;;;;4168397;28;20053;-60
2021/09/15 04:12:24;;;;;;;14.38;7.32;;;23.50;56.40;;;;;;4167550;28;20042;-59
2021/09/15 04:14:26;;;;;;;13.48;7.32;;;23.50;56.40;;;;;;4167831;28;20057;-59
2021/09/15 04:16:46;;;;;;;16.88;7.10;;;23.50;56.10;;;;;;4167811;28;20065;-59
2021/09/15 04:19:07;;;;;;;15.77;8.60;;;23.50;56.10;;;;;;4167801;28;20073;-60
2021/09/15 04:21:28;;;;;;;22.85;8.35;;;23.50;56.40;;;;;;4167857;28;20118;-60
2021/09/15 04:31:32;;;;;;;20.35;8.50;;;23.40;56.70;;;;;;4150885;28;20054;-60
2021/09/15 04:33:58;;;;;;;20.73;7.10;;;23.40;57.10;;;;;;4150810;28;20103;-59
2021/09/15 04:36:19;;;;;;;30.27;7.15;;;23.40;56.90;;;;;;4151457;28;20069;-55
2021/09/15 04:38:40;;;;;;;28.25;9.07;;;23.40;57.00;;;;;;4151722;28;20057;-58
2021/09/15 04:40:44;;;;;;;31.23;9.88;;;23.40;56.70;;;;;;4151681;28;20053;-55
2021/09/15 04:42:47;;;;;;;24.63;9.15;;;23.40;56.90;;;;;;4151610;28;20053;-55
2021/09/15 04:44:49;;;;;;;39.60;10.43;;;23.40;56.90;;;;;;4151635;28;20427;-50
2021/09/15 04:46:51;;;;;;;27.60;9.07;;;23.40;57.10;;;;;;4150777;28;20101;-50
2021/09/15 04:49:11;;;;;;;34.70;8.82;;;23.40;57.20;;;;;;4151529;28;20049;-53
2021/09/15 04:51:33;;;;;;;23.48;8.80;;;23.40;58.00;;;;;;4151562;28;20049;-49
2021/09/15 04:53:56;;;;;;;28.45;8.73;;;23.40;58.00;;;;;;4149871;28;20048;-49
2021/09/15 04:56:18;;;;;;;22.55;8.23;;;23.40;57.80;;;;;;4151938;28;20046;-50
2021/09/15 04:58:40;;;;;;;18.85;8.68;;;23.40;57.80;;;;;;4150083;28;20084;-48
2021/09/15 05:01:02;;;;;;;26.52;9.25;;;23.40;57.90;;;;;;4151389;28;20046;-49
2021/09/15 05:03:25;;;;;;;25.83;8.10;;;23.40;57.80;;;;;;4136621;28;20057;-50
2021/09/15 05:05:47;;;;;;;32.50;8.20;;;23.30;57.50;;;;;;4151277;28;20049;-52
2021/09/15 05:08:10;;;;;;;25.35;8.93;;;23.40;57.60;;;;;;4151729;28;20043;-51
2021/09/15 05:10:32;;;;;;;21.58;8.65;;;23.40;57.60;;;;;;4151259;28;20042;-47
2021/09/15 05:12:56;;;;;;;19.65;7.43;;;23.30;57.60;;;;;;4151121;28;20038;-48
2021/09/15 05:15:19;;;;;;;18.85;7.78;;;23.30;57.60;;;;;;4136522;28;20045;-49
2021/09/15 05:17:42;;;;;;;20.27;7.93;;;23.30;57.80;;;;;;4150414;28;20046;-52
2021/09/15 05:20:06;;;;;;;19.45;7.70;;;23.30;57.50;;;;;;4134914;28;20053;-51
2021/09/15 05:22:28;;;;;;;16.80;8.27;;;23.30;57.60;;;;;;4148108;28;20043;-48
2021/09/15 05:24:51;;;;;;;15.02;7.75;;;23.30;57.60;;;;;;4148295;28;20046;-46
2021/09/15 05:27:13;;;;;;;19.15;7.60;;;23.30;57.60;;;;;;4148241;28;20046;-49
2021/09/15 05:29:35;;;;;;;15.23;7.95;;;23.30;57.70;;;;;;4135656;28;20043;-49
2021/09/15 05:31:58;;;;;;;14.15;7.35;;;23.20;57.50;;;;;;4148523;28;20053;-48
2021/09/15 05:34:20;;;;;;;12.88;7.07;;;23.20;57.50;;;;;;4149437;28;20054;-50
2021/09/15 05:36:42;;;;;;;12.63;8.55;;;23.20;57.60;;;;;;4149307;28;20109;-49
2021/09/15 05:39:05;;;;;;;13.38;7.32;;;23.20;57.60;;;;;;4149124;28;20050;-48
2021/09/15 05:41:27;;;;;;;13.15;7.82;;;23.20;57.80;;;;;;4133143;28;20105;-49
2021/09/15 05:43:49;;;;;;;13.88;7.70;;;23.10;57.70;;;;;;4149237;28;20050;-50
2021/09/15 05:46:12;;;;;;;17.95;8.10;;;23.00;57.90;;;;;;4149748;28;20042;-51
2021/09/15 05:48:34;;;;;;;9.10;7.07;;;23.00;58.00;;;;;;4148065;28;20049;-48
2021/09/15 05:50:57;;;;;;;16.27;7.70;;;23.00;57.90;;;;;;4147181;28;20042;-53
2021/09/15 05:53:19;;;;;;;14.25;7.65;;;23.10;58.00;;;;;;4134274;28;20043;-49
2021/09/15 05:55:42;;;;;;;16.88;7.90;;;23.10;57.90;;;;;;4149157;28;20119;-49
2021/09/15 05:58:04;;;;;;;11.10;7.13;;;23.10;57.70;;;;;;4147526;28;20053;-51
2021/09/15 06:00:26;;;;;;;12.13;7.22;;;23.10;58.00;;;;;;4146064;28;20041;-48
2021/09/15 06:02:48;;;;;;;11.18;7.90;;;23.10;57.90;;;;;;4165049;28;20037;-50
2021/09/15 06:05:11;;;;;;;11.70;8.13;;;23.10;58.10;;;;;;4163684;28;20042;-50
2021/09/15 06:07:33;;;;;;;12.88;7.47;;;23.00;57.90;;;;;;4163194;28;20042;-48
2021/09/15 06:09:55;;;;;;;14.90;7.82;;;23.10;57.90;;;;;;4165126;28;20502;-48
2021/09/15 06:12:17;;;;;;;12.50;8.32;;;23.00;58.00;;;;;;4150237;28;20110;-49
2021/09/15 06:14:40;;;;;;;12.98;8.77;;;23.00;58.20;;;;;;4164660;28;20056;-48
2021/09/15 06:17:02;;;;;;;11.60;8.27;;;23.00;58.10;;;;;;4164499;28;20048;-48
2021/09/15 06:19:25;;;;;;;13.30;8.05;;;23.00;57.90;;;;;;4163227;28;20049;-47
2021/09/15 06:21:47;;;;;;;12.20;8.10;;;23.10;57.90;;;;;;4148814;28;20048;-48
2021/09/15 06:24:10;;;;;;;8.48;7.20;;;23.10;57.80;;;;;;4149847;28;20068;-49
2021/09/15 06:26:32;;;;;;;11.57;7.90;;;23.20;57.70;;;;;;4164918;28;20053;-52
2021/09/15 06:28:55;;;;;;;15.27;8.23;;;23.10;57.80;;;;;;4162842;28;20038;-49
2021/09/15 06:31:18;;;;;;;15.85;7.50;;;23.10;57.80;;;;;;4164803;28;20053;-49
2021/09/15 06:33:41;;;;;;;12.88;8.43;;;23.10;58.00;;;;;;4163221;28;20045;-51
2021/09/15 06:36:04;;;;;;;13.10;8.23;;;23.00;57.80;;;;;;4164308;28;20046;-50
2021/09/15 06:38:27;;;;;;;9.48;7.47;;;23.00;58.10;;;;;;4149559;28;20042;-50
2021/09/15 06:40:50;;;;;;;14.48;8.90;;;23.00;58.20;;;;;;4163494;28;20049;-50
2021/09/15 06:43:12;;;;;;;14.95;8.73;;;23.00;58.40;;;;;;4164830;28;20056;-47
2021/09/15 06:45:35;;;;;;;13.68;9.23;;;23.00;58.50;;;;;;4149589;28;20186;-50
2021/09/15 06:47:57;;;;;;;10.48;7.72;;;23.00;58.30;;;;;;4164252;28;20046;-51
2021/09/15 06:50:19;;;;;;;10.57;7.53;;;23.00;58.20;;;;;;4164288;28;20044;-49
2021/09/15 06:52:41;;;;;;;11.15;8.25;;;23.00;58.20;;;;;;4166423;28;20073;-49
2021/09/15 06:55:05;;;;;;;11.45;8.93;;;23.00;58.40;;;;;;4166435;28;20065;-47
2021/09/15 06:57:27;;;;;;;13.93;8.35;;;23.00;58.40;;;;;;4151909;28;20048;-48
2021/09/15 06:59:50;;;;;;;10.52;8.07;;;23.00;58.40;;;;;;4167455;28;20049;-50
2021/09/15 07:02:13;;;;;;;13.65;8.60;;;23.00;58.30;;;;;;4166494;28;20053;-47
2021/09/15 07:04:35;;;;;;;12.57;8.25;;;23.00;58.30;;;;;;4167475;28;20085;-48
2021/09/15 07:06:57;;;;;;;14.95;8.90;;;23.00;58.20;;;;;;4167733;28;20076;-50
2021/09/15 07:09:20;;;;;;;12.82;8.50;;;23.00;57.80;;;;;;4165868;28;20042;-58
2021/09/15 07:11:42;;;;;;;12.60;8.52;;;23.00;58.30;;;;;;4166508;28;20042;-58
2021/09/15 07:14:05;;;;;;;14.05;9.75;;;23.00;58.40;;;;;;4168762;28;20046;-58
2021/09/15 07:16:30;;;;;;;16.58;9.55;;;23.00;58.30;;;;;;4152364;28;20046;-58
2021/09/15 07:18:52;;;;;;;13.68;8.88;;;23.00;58.40;;;;;;4153239;28;20068;-59
2021/09/15 07:21:15;;;;;;;15.52;8.60;;;23.00;58.30;;;;;;4165796;28;20105;-58
2021/09/15 07:23:37;;;;;;;12.48;8.43;;;23.00;58.40;;;;;;4165486;28;20302;-59
2021/09/15 07:26:00;;;;;;;11.13;8.93;;;23.00;58.50;;;;;;4165810;28;20049;-59
2021/09/15 07:28:22;;;;;;;13.07;8.88;;;23.00;58.40;;;;;;4151868;28;20050;-58
2021/09/15 07:30:45;;;;;;;10.93;8.32;;;23.00;58.20;;;;;;4167210;28;20042;-59
2021/09/15 07:33:08;;;;;;;10.35;8.52;;;23.00;58.10;;;;;;4165552;28;20046;-59
2021/09/15 07:35:31;;;;;;;11.70;7.75;;;23.00;58.10;;;;;;4153199;28;20080;-59
2021/09/15 07:37:53;;;;;;;11.30;8.18;;;23.00;58.00;;;;;;4167259;28;20065;-59
2021/09/15 07:40:16;;;;;;;10.48;8.57;;;23.10;58.00;;;;;;4167162;28;20057;-59
2021/09/15 07:42:38;;;;;;;14.07;9.70;;;23.10;57.90;;;;;;4166719;28;20050;-58
2021/09/15 07:45:00;;;;;;;11.60;8.40;;;23.10;57.70;;;;;;4166588;28;20046;-60
2021/09/15 07:47:23;;;;;;;14.15;8.80;;;23.10;57.90;;;;;;4151901;28;20046;-58
2021/09/15 07:49:46;;;;;;;12.32;8.70;;;23.10;57.90;;;;;;4166376;28;20046;-58
2021/09/15 07:52:08;;;;;;;11.70;8.95;;;23.10;57.90;;;;;;4166497;28;20038;-57
2021/09/15 07:54:31;;;;;;;14.55;9.32;;;23.00;57.90;;;;;;4166959;28;20052;-58
2021/09/15 07:56:53;;;;;;;11.50;8.35;;;23.10;57.90;;;;;;4166963;28;20053;-59
2021/09/15 07:59:15;;;;;;;11.45;9.25;;;23.10;57.80;;;;;;4151699;28;20101;-59
2021/09/15 08:01:38;;;;;;;11.23;8.63;;;23.10;57.80;;;;;;4166927;28;20046;-58
2021/09/15 08:04:00;;;;;;;10.18;7.35;;;23.10;57.60;;;;;;4165308;28;20042;-58
2021/09/15 08:06:22;;;;;;;9.02;7.60;;;23.10;57.80;;;;;;4151918;28;20081;-57
2021/09/15 08:08:52;;;;;;;12.18;8.00;;;23.10;57.60;;;;;;4165101;28;20069;-58
2021/09/15 08:11:15;;;;;;;12.40;8.25;;;23.10;57.60;;;;;;4164763;28;20065;-58
2021/09/15 08:13:37;;;;;;;12.88;7.93;;;23.10;57.60;;;;;;4165186;28;20052;-59
2021/09/15 08:15:59;;;;;;;12.20;8.10;;;23.00;57.50;;;;;;4166045;28;20042;-58
2021/09/15 08:18:22;;;;;;;9.80;7.75;;;23.10;57.60;;;;;;4164987;28;20073;-58
2021/09/15 08:20:53;;;;;;;15.63;9.13;;;23.10;57.60;;;;;;4164847;28;20069;-58
2021/09/15 08:23:18;;;;;;;10.75;7.85;;;23.10;57.40;;;;;;4165787;28;20048;-57
2021/09/15 08:25:41;;;;;;;13.60;8.55;;;23.10;57.40;;;;;;4164485;28;20042;-59
2021/09/15 08:28:04;;;;;;;14.15;8.48;;;23.10;57.40;;;;;;4166329;28;20049;-58
2021/09/15 08:30:27;;;;;;;8.18;7.20;;;23.10;57.40;;;;;;4165724;28;20038;-58
2021/09/15 08:32:50;;;;;;;10.68;8.52;;;23.10;57.40;;;;;;4165875;28;20101;-58
2021/09/15 08:35:12;;;;;;;12.50;8.60;;;23.10;57.30;;;;;;4166896;28;20042;-58
2021/09/15 08:37:38;;;;;;;11.88;8.40;;;23.10;57.40;;;;;;4165724;28;20038;-58
2021/09/15 08:40:03;;;;;;;10.30;7.97;;;23.10;57.40;;;;;;4150614;28;20137;-59
2021/09/15 08:42:26;;;;;;;10.13;7.97;;;23.10;57.20;;;;;;4165439;28;20042;-59
2021/09/15 08:44:48;;;;;;;10.57;7.18;;;23.10;57.30;;;;;;4166336;28;20198;-59
2021/09/15 08:47:11;;;;;;;9.73;7.70;;;23.00;57.30;;;;;;4166148;28;20046;-59
2021/09/15 08:49:34;;;;;;;13.65;8.13;;;23.00;57.20;;;;;;4165354;28;20101;-56
2021/09/15 08:51:57;;;;;;;11.50;8.18;;;23.10;57.20;;;;;;4152374;28;20042;-57
2021/09/15 08:54:19;;;;;;;11.57;7.35;;;23.00;57.20;;;;;;4165547;28;20042;-59
2021/09/15 08:56:42;;;;;;;10.13;7.30;;;23.00;57.10;;;;;;4164369;28;20053;-59
2021/09/15 08:59:04;;;;;;;12.57;8.52;;;23.10;57.20;;;;;;4163872;28;20046;-59
2021/09/15 09:01:14;;;;;;;12.45;7.80;;;23.10;57.20;;;;;;4164702;28;20077;-57
2021/09/15 09:03:37;;;;;;;10.32;7.88;;;23.10;57.00;;;;;;4166502;28;20125;-57
2021/09/15 09:06:08;;;;;;;19.75;7.70;;;23.10;56.70;;;;;;4166509;28;20048;-56
2021/09/15 09:08:29;;;;;;;11.48;8.15;;;23.20;56.80;;;;;;4166512;28;20048;-58
2021/09/15 09:10:55;;;;;;;9.85;7.63;;;23.20;56.60;;;;;;4166422;28;20052;-57
2021/09/15 09:12:59;;;;;;;13.98;7.78;;;23.20;56.50;;;;;;4166036;28;20042;-50
2021/09/15 09:15:26;;;;;;;15.10;7.90;;;23.20;56.40;;;;;;4166318;28;20072;-51
2021/09/15 09:17:47;;;;;;;13.93;8.73;;;23.20;56.40;;;;;;4166329;28;20068;-52
2021/09/15 09:20:14;;;;;;;13.82;7.88;;;23.20;56.30;;;;;;4166398;28;20060;-55
2021/09/15 09:22:34;;;;;;;22.02;16.17;;;23.30;56.20;;;;;;4167852;28;20056;-56
2021/09/15 09:24:57;;;;;;;14.25;10.60;;;23.30;56.50;;;;;;4144743;28;20106;-54
2021/09/15 09:27:27;;;;;;;14.48;9.05;;;23.30;56.40;;;;;;4151960;28;20060;-57
2021/09/15 09:29:48;;;;;;;20.38;11.15;;;23.30;56.40;;;;;;4138950;28;20106;-58
2021/09/15 09:32:16;;;;;;;17.15;9.00;;;23.30;56.30;;;;;;4154903;28;20111;-59
2021/09/15 09:34:43;;;;;;;15.18;8.63;;;23.30;56.40;;;;;;4157905;28;20053;-57
2021/09/15 09:37:09;;;;;;;15.02;8.50;;;23.30;56.00;;;;;;4147737;28;20103;-57
2021/09/15 09:39:43;;;;;;;15.70;9.05;;;23.40;55.70;;;;;;4152715;28;20070;-58
2021/09/15 09:42:23;;;;;;;12.45;8.18;;;23.40;55.80;;;;;;4149394;28;20077;-56
2021/09/15 09:44:44;;;;;;;11.95;8.80;;;23.40;55.80;;;;;;4158030;28;20060;-57
2021/09/15 09:47:19;;;;;;;16.05;9.90;;;23.40;56.20;;;;;;4147799;28;20057;-56
2021/09/15 09:49:58;;;;;;;11.90;9.25;;;23.40;56.20;;;;;;4133979;28;20069;-57
2021/09/15 09:52:19;;;;;;;13.13;11.30;;;23.40;56.30;;;;;;4144526;28;20077;-56
2021/09/15 09:54:39;;;;;;;17.73;10.35;;;23.40;56.10;;;;;;4153060;28;20086;-58
2021/09/15 09:57:00;;;;;;;10.27;8.77;;;23.40;56.10;;;;;;4162715;28;20053;-56
2021/09/15 09:59:25;;;;;;;14.63;8.68;;;23.40;56.10;;;;;;4157422;28;20073;-54
2021/09/15 10:01:51;;;;;;;14.85;7.63;;;23.50;56.10;;;;;;4153773;28;20109;-57
2021/09/15 10:04:15;;;;;;;13.35;8.48;;;23.50;56.10;;;;;;4146981;28;20077;-56
2021/09/15 10:06:39;;;;;;;14.68;9.02;;;23.50;56.00;;;;;;4154161;28;20053;-56
2021/09/15 10:09:02;;;;;;;10.60;8.75;;;23.50;56.10;;;;;;4149417;28;20069;-58
2021/09/15 10:11:25;;;;;;;11.98;8.73;;;23.50;56.00;;;;;;4159887;28;20046;-57
2021/09/15 10:13:47;;;;;;;10.30;8.25;;;23.50;56.00;;;;;;4158633;28;20034;-53
2021/09/15 10:16:11;;;;;;;10.80;8.65;;;23.50;55.90;;;;;;4148728;28;21090;-55
2021/09/15 10:18:33;;;;;;;14.05;8.95;;;23.50;56.00;;;;;;4148160;28;20045;-57
2021/09/15 10:20:57;;;;;;;12.82;7.47;;;23.50;55.70;;;;;;4160470;28;20049;-58
2021/09/15 10:23:43;;;;;;;13.35;8.35;;;23.50;55.90;;;;;;4150534;28;20042;-56
2021/09/15 10:26:28;;;;;;;11.60;7.57;;;23.50;55.80;;;;;;4156055;28;20069;-55
2021/09/15 10:29:12;;;;;;;12.52;8.05;;;23.50;55.80;;;;;;4158788;28;20106;-57
2021/09/15 10:31:58;;;;;;;9.75;7.82;;;23.50;55.80;;;;;;4133916;28;20066;-56
2021/09/15 10:34:38;;;;;;;14.57;8.35;;;23.60;55.80;;;;;;4146092;28;20049;-57
2021/09/15 10:37:01;;;;;;;11.38;7.65;;;23.60;55.70;;;;;;4152978;28;20081;-56
2021/09/15 10:39:24;;;;;;;10.27;8.57;;;23.50;55.70;;;;;;4155676;28;20074;-56
2021/09/15 10:41:46;;;;;;;9.27;7.15;;;23.60;55.80;;;;;;4145661;28;20042;-56
2021/09/15 10:44:14;;;;;;;10.13;7.70;;;23.60;55.70;;;;;;4153458;28;20045;-57
2021/09/15 10:46:37;;;;;;;8.63;7.32;;;23.60;55.70;;;;;;4130868;28;20069;-55
2021/09/15 10:49:21;;;;;;;8.60;7.05;;;23.60;55.60;;;;;;4155228;28;20062;-54
2021/09/15 10:51:45;;;;;;;8.38;6.72;;;23.60;55.70;;;;;;4160977;28;20054;-53
2021/09/15 10:54:45;;;;;;;10.70;6.75;;;23.60;55.60;;;;;;4145206;28;20074;-55
2021/09/15 10:57:32;;;;;;;9.52;8.00;;;23.60;55.60;;;;;;4143174;28;20899;-57
2021/09/15 11:00:10;;;;;;;7.85;6.55;;;23.60;55.60;;;;;;4143205;28;20074;-53
2021/09/15 11:02:34;;;;;;;8.77;7.05;;;23.60;55.60;;;;;;4157426;28;20046;-55
2021/09/15 11:05:22;;;;;;;10.30;6.72;;;23.60;55.50;;;;;;4161622;28;20072;-57
2021/09/15 11:07:46;;;;;;;10.57;6.90;;;23.60;55.60;;;;;;4153799;28;20057;-56
2021/09/15 11:10:09;;;;;;;6.72;5.90;;;23.60;55.70;;;;;;4147037;28;20073;-56
2021/09/15 11:12:45;;;;;;;7.80;6.15;;;23.60;55.60;;;;;;4158191;28;20066;-56
2021/09/15 11:15:23;;;;;;;;;;;23.60;55.60;;;;;;4153877;28;20046;-57
2021/09/15 11:17:45;;;;;;;8.60;6.50;;;23.60;55.60;;;;;;4157645;28;19925;-56
2021/09/15 11:20:08;;;;;;;8.68;5.65;;;23.60;55.60;;;;;;4160274;28;20069;-56
2021/09/15 11:22:33;;;;;;;8.65;6.53;;;23.60;55.60;;;;;;4145813;28;20043;-57
2021/09/15 11:24:57;;;;;;;7.15;6.38;;;23.60;55.60;;;;;;4151293;28;20050;-56
2021/09/15 11:27:19;;;;;;;9.60;6.53;;;23.60;55.60;;;;;;4139585;28;20050;-56
2021/09/15 11:29:54;;;;;;;10.00;6.55;;;23.60;55.60;;;;;;4143910;28;20128;-56
2021/09/15 11:32:18;;;;;;;9.30;6.30;;;23.60;55.60;;;;;;4154425;28;20038;-56
2021/09/15 11:34:43;;;;;;;10.05;6.28;;;23.60;55.60;;;;;;4159262;28;20046;-56
2021/09/15 11:37:26;;;;;;;7.70;6.40;;;23.60;55.60;;;;;;4151780;28;20061;-57
2021/09/15 11:39:59;;;;;;;10.82;6.03;;;23.60;55.50;;;;;;4156536;28;21074;-56
2021/09/15 11:42:24;;;;;;;8.68;6.68;;;23.70;55.60;;;;;;4148617;28;20054;-56
2021/09/15 11:44:46;;;;;;;7.18;5.72;;;23.60;55.60;;;;;;4156284;28;20050;-56
2021/09/15 11:47:08;;;;;;;7.70;5.38;;;23.60;55.50;;;;;;4150890;28;20635;-55
2021/09/15 11:49:33;;;;;;;7.38;6.00;;;23.60;55.50;;;;;;4147246;28;20070;-55